sensor_id;sensor_type;location;lat;lon;timestamp;P1;durP1;ratioP1;P2;durP2;ratioP2
73452;SDS011;61687;56.232;43.854;2023-02-28T00:00:49;14.80;;;7.57;;
73452;SDS011;61687;56.232;43.854;2023-02-28T00:03:15;15.55;;;8.20;;
73452;SDS011;61687;56.232;43.854;2023-02-28T00:05:41;15.77;;;8.20;;
73452;SDS011;61687;56.232;43.854;2023-02-28T00:08:07;19.05;;;9.13;;
73452;SDS011;61687;56.232;43.854;2023-02-28T00:10:34;14.38;;;7.30;;
73452;SDS011;61687;56.232;43.854;2023-02-28T00:13:01;16.00;;;8.27;;
73452;SDS011;61687;56.232;43.854;2023-02-28T00:15:29;21.85;;;8.93;;
73452;SDS011;61687;56.232;43.854;2023-02-28T00:17:55;18.47;;;8.63;;
73452;SDS011;61687;56.232;43.854;2023-02-28T00:20:21;21.13;;;8.43;;
73452;SDS011;61687;56.232;43.854;2023-02-28T00:22:49;18.02;;;8.88;;
73452;SDS011;61687;56.232;43.854;2023-02-28T00:25:17;15.15;;;7.40;;
73452;SDS011;61687;56.232;43.854;2023-02-28T00:27:44;16.13;;;8.90;;
73452;SDS011;61687;56.232;43.854;2023-02-28T00:30:12;13.50;;;7.72;;
73452;SDS011;61687;56.232;43.854;2023-02-28T00:32:40;19.65;;;9.18;;
73452;SDS011;61687;56.232;43.854;2023-02-28T00:35:07;17.88;;;8.75;;
73452;SDS011;61687;56.232;43.854;2023-02-28T00:37:34;17.00;;;9.57;;
73452;SDS011;61687;56.232;43.854;2023-02-28T00:40:00;18.80;;;6.93;;
73452;SDS011;61687;56.232;43.854;2023-02-28T00:42:28;16.45;;;7.50;;
73452;SDS011;61687;56.232;43.854;2023-02-28T00:44:54;18.05;;;8.98;;
73452;SDS011;61687;56.232;43.854;2023-02-28T00:47:20;16.45;;;7.95;;
73452;SDS011;61687;56.232;43.854;2023-02-28T00:49:46;20.70;;;8.90;;
73452;SDS011;61687;56.232;43.854;2023-02-28T00:52:13;18.00;;;8.25;;
73452;SDS011;61687;56.232;43.854;2023-02-28T00:54:38;21.10;;;8.43;;
73452;SDS011;61687;56.232;43.854;2023-02-28T00:57:06;18.45;;;8.13;;
73452;SDS011;61687;56.232;43.854;2023-02-28T00:59:32;14.70;;;7.53;;
73452;SDS011;61687;56.232;43.854;2023-02-28T01:01:58;13.70;;;7.70;;
73452;SDS011;61687;56.232;43.854;2023-02-28T01:04:24;14.85;;;6.82;;
73452;SDS011;61687;56.232;43.854;2023-02-28T01:06:50;15.82;;;7.18;;
73452;SDS011;61687;56.232;43.854;2023-02-28T01:09:16;14.47;;;7.40;;
73452;SDS011;61687;56.232;43.854;2023-02-28T01:11:42;16.63;;;7.85;;
73452;SDS011;61687;56.232;43.854;2023-02-28T01:14:13;13.73;;;6.90;;
73452;SDS011;61687;56.232;43.854;2023-02-28T01:16:41;18.13;;;7.90;;
73452;SDS011;61687;56.232;43.854;2023-02-28T01:19:07;14.93;;;7.53;;
73452;SDS011;61687;56.232;43.854;2023-02-28T01:21:33;12.73;;;7.10;;
73452;SDS011;61687;56.232;43.854;2023-02-28T01:24:00;13.65;;;6.72;;
73452;SDS011;61687;56.232;43.854;2023-02-28T01:26:26;15.77;;;6.72;;
73452;SDS011;61687;56.232;43.854;2023-02-28T01:28:52;11.32;;;6.93;;
73452;SDS011;61687;56.232;43.854;2023-02-28T01:31:19;12.95;;;7.60;;
73452;SDS011;61687;56.232;43.854;2023-02-28T01:33:47;15.82;;;7.15;;
73452;SDS011;61687;56.232;43.854;2023-02-28T01:36:15;15.10;;;7.57;;
73452;SDS011;61687;56.232;43.854;2023-02-28T01:38:44;13.02;;;6.53;;
73452;SDS011;61687;56.232;43.854;2023-02-28T01:41:15;16.10;;;6.90;;
73452;SDS011;61687;56.232;43.854;2023-02-28T01:46:20;12.45;;;6.93;;
73452;SDS011;61687;56.232;43.854;2023-02-28T01:48:51;11.50;;;5.97;;
73452;SDS011;61687;56.232;43.854;2023-02-28T01:51:26;14.63;;;6.72;;
73452;SDS011;61687;56.232;43.854;2023-02-28T01:54:07;14.23;;;5.83;;
73452;SDS011;61687;56.232;43.854;2023-02-28T01:56:41;12.35;;;6.18;;
73452;SDS011;61687;56.232;43.854;2023-02-28T01:59:18;13.10;;;6.88;;
73452;SDS011;61687;56.232;43.854;2023-02-28T02:02:17;11.80;;;6.72;;
73452;SDS011;61687;56.232;43.854;2023-02-28T02:04:56;16.15;;;6.63;;
73452;SDS011;61687;56.232;43.854;2023-02-28T02:07:29;10.20;;;6.10;;
73452;SDS011;61687;56.232;43.854;2023-02-28T02:10:03;12.57;;;6.20;;
73452;SDS011;61687;56.232;43.854;2023-02-28T02:15:16;12.45;;;6.82;;
73452;SDS011;61687;56.232;43.854;2023-02-28T02:17:51;12.70;;;6.20;;
73452;SDS011;61687;56.232;43.854;2023-02-28T02:23:32;11.63;;;6.32;;
73452;SDS011;61687;56.232;43.854;2023-02-28T02:37:32;12.38;;;5.93;;
73452;SDS011;61687;56.232;43.854;2023-02-28T02:45:14;17.13;;;6.40;;
73452;SDS011;61687;56.232;43.854;2023-02-28T02:47:45;12.57;;;5.57;;
73452;SDS011;61687;56.232;43.854;2023-02-28T02:50:15;13.15;;;6.95;;
73452;SDS011;61687;56.232;43.854;2023-02-28T02:52:49;18.48;;;7.05;;
73452;SDS011;61687;56.232;43.854;2023-02-28T02:55:20;12.05;;;6.20;;
73452;SDS011;61687;56.232;43.854;2023-02-28T02:57:49;11.70;;;6.37;;
73452;SDS011;61687;56.232;43.854;2023-02-28T03:00:21;11.18;;;6.00;;
73452;SDS011;61687;56.232;43.854;2023-02-28T03:02:52;11.77;;;5.90;;
73452;SDS011;61687;56.232;43.854;2023-02-28T03:05:23;10.90;;;6.13;;
73452;SDS011;61687;56.232;43.854;2023-02-28T03:07:54;10.93;;;6.35;;
73452;SDS011;61687;56.232;43.854;2023-02-28T03:11:20;12.00;;;5.57;;
73452;SDS011;61687;56.232;43.854;2023-02-28T03:21:37;11.95;;;5.97;;
73452;SDS011;61687;56.232;43.854;2023-02-28T03:24:31;10.40;;;5.70;;
73452;SDS011;61687;56.232;43.854;2023-02-28T03:27:28;10.27;;;5.32;;
73452;SDS011;61687;56.232;43.854;2023-02-28T03:32:38;11.40;;;5.82;;
73452;SDS011;61687;56.232;43.854;2023-02-28T03:35:07;11.35;;;6.47;;
73452;SDS011;61687;56.232;43.854;2023-02-28T03:37:40;13.17;;;6.43;;
73452;SDS011;61687;56.232;43.854;2023-02-28T03:40:28;12.20;;;6.47;;
73452;SDS011;61687;56.232;43.854;2023-02-28T03:42:59;12.27;;;7.00;;
73452;SDS011;61687;56.232;43.854;2023-02-28T03:45:30;10.48;;;5.57;;
73452;SDS011;61687;56.232;43.854;2023-02-28T03:48:19;11.75;;;6.18;;
73452;SDS011;61687;56.232;43.854;2023-02-28T03:50:53;11.50;;;5.80;;
73452;SDS011;61687;56.232;43.854;2023-02-28T03:56:18;11.80;;;5.85;;
73452;SDS011;61687;56.232;43.854;2023-02-28T03:58:49;12.52;;;6.05;;
73452;SDS011;61687;56.232;43.854;2023-02-28T04:01:31;12.40;;;5.60;;
73452;SDS011;61687;56.232;43.854;2023-02-28T04:04:02;11.90;;;5.67;;
73452;SDS011;61687;56.232;43.854;2023-02-28T04:06:29;9.88;;;4.85;;
73452;SDS011;61687;56.232;43.854;2023-02-28T04:08:57;11.50;;;5.20;;
73452;SDS011;61687;56.232;43.854;2023-02-28T04:14:06;12.70;;;5.65;;
73452;SDS011;61687;56.232;43.854;2023-02-28T04:16:33;11.03;;;5.10;;
73452;SDS011;61687;56.232;43.854;2023-02-28T04:19:05;11.02;;;5.93;;
73452;SDS011;61687;56.232;43.854;2023-02-28T04:21:33;11.02;;;5.57;;
73452;SDS011;61687;56.232;43.854;2023-02-28T04:24:01;9.93;;;5.10;;
73452;SDS011;61687;56.232;43.854;2023-02-28T04:26:32;11.32;;;5.68;;
73452;SDS011;61687;56.232;43.854;2023-02-28T04:28:59;10.30;;;4.77;;
73452;SDS011;61687;56.232;43.854;2023-02-28T04:31:26;11.98;;;6.15;;
73452;SDS011;61687;56.232;43.854;2023-02-28T04:33:52;9.50;;;6.20;;
73452;SDS011;61687;56.232;43.854;2023-02-28T04:36:18;10.07;;;5.37;;
73452;SDS011;61687;56.232;43.854;2023-02-28T04:38:44;10.65;;;5.97;;
73452;SDS011;61687;56.232;43.854;2023-02-28T04:41:14;11.32;;;5.78;;
73452;SDS011;61687;56.232;43.854;2023-02-28T04:43:41;9.65;;;6.03;;
73452;SDS011;61687;56.232;43.854;2023-02-28T04:46:08;10.63;;;5.55;;
73452;SDS011;61687;56.232;43.854;2023-02-28T04:48:35;8.90;;;5.07;;
73452;SDS011;61687;56.232;43.854;2023-02-28T04:51:03;11.30;;;5.93;;
73452;SDS011;61687;56.232;43.854;2023-02-28T04:53:31;10.15;;;6.00;;
73452;SDS011;61687;56.232;43.854;2023-02-28T04:55:57;10.02;;;5.93;;
73452;SDS011;61687;56.232;43.854;2023-02-28T04:58:25;10.55;;;5.60;;
73452;SDS011;61687;56.232;43.854;2023-02-28T05:00:51;8.33;;;5.87;;
73452;SDS011;61687;56.232;43.854;2023-02-28T05:03:18;12.10;;;6.03;;
73452;SDS011;61687;56.232;43.854;2023-02-28T05:05:46;9.55;;;6.25;;
73452;SDS011;61687;56.232;43.854;2023-02-28T05:08:12;10.88;;;5.82;;
73452;SDS011;61687;56.232;43.854;2023-02-28T05:10:38;13.38;;;6.07;;
73452;SDS011;61687;56.232;43.854;2023-02-28T05:13:04;10.20;;;5.70;;
73452;SDS011;61687;56.232;43.854;2023-02-28T05:15:30;9.48;;;5.00;;
73452;SDS011;61687;56.232;43.854;2023-02-28T05:17:56;11.05;;;5.32;;
73452;SDS011;61687;56.232;43.854;2023-02-28T05:20:22;9.43;;;5.80;;
73452;SDS011;61687;56.232;43.854;2023-02-28T05:22:49;9.57;;;5.57;;
73452;SDS011;61687;56.232;43.854;2023-02-28T05:25:19;8.90;;;5.28;;
73452;SDS011;61687;56.232;43.854;2023-02-28T05:27:49;9.50;;;5.97;;
73452;SDS011;61687;56.232;43.854;2023-02-28T05:30:16;12.33;;;5.97;;
73452;SDS011;61687;56.232;43.854;2023-02-28T05:32:42;12.05;;;6.85;;
73452;SDS011;61687;56.232;43.854;2023-02-28T05:35:09;9.40;;;5.13;;
73452;SDS011;61687;56.232;43.854;2023-02-28T05:37:37;13.23;;;6.95;;
73452;SDS011;61687;56.232;43.854;2023-02-28T05:40:03;11.05;;;6.10;;
73452;SDS011;61687;56.232;43.854;2023-02-28T05:42:35;9.33;;;5.10;;
73452;SDS011;61687;56.232;43.854;2023-02-28T05:45:03;10.18;;;5.13;;
73452;SDS011;61687;56.232;43.854;2023-02-28T05:47:29;11.13;;;6.63;;
73452;SDS011;61687;56.232;43.854;2023-02-28T05:49:56;13.20;;;6.28;;
73452;SDS011;61687;56.232;43.854;2023-02-28T05:52:22;10.13;;;6.43;;
73452;SDS011;61687;56.232;43.854;2023-02-28T05:54:48;9.00;;;5.82;;
73452;SDS011;61687;56.232;43.854;2023-02-28T05:57:14;11.45;;;6.07;;
73452;SDS011;61687;56.232;43.854;2023-02-28T05:59:40;12.57;;;5.88;;
73452;SDS011;61687;56.232;43.854;2023-02-28T06:02:10;13.40;;;6.65;;
73452;SDS011;61687;56.232;43.854;2023-02-28T06:04:38;13.98;;;7.43;;
73452;SDS011;61687;56.232;43.854;2023-02-28T06:07:04;9.27;;;6.28;;
73452;SDS011;61687;56.232;43.854;2023-02-28T06:09:29;12.23;;;7.03;;
73452;SDS011;61687;56.232;43.854;2023-02-28T06:12:00;10.43;;;6.20;;
73452;SDS011;61687;56.232;43.854;2023-02-28T06:14:28;10.02;;;6.05;;
73452;SDS011;61687;56.232;43.854;2023-02-28T06:16:56;12.73;;;6.85;;
73452;SDS011;61687;56.232;43.854;2023-02-28T06:19:23;13.32;;;6.47;;
73452;SDS011;61687;56.232;43.854;2023-02-28T06:21:51;14.30;;;6.77;;
73452;SDS011;61687;56.232;43.854;2023-02-28T06:24:18;10.93;;;6.55;;
73452;SDS011;61687;56.232;43.854;2023-02-28T06:26:45;9.48;;;5.70;;
73452;SDS011;61687;56.232;43.854;2023-02-28T06:29:11;13.00;;;6.55;;
73452;SDS011;61687;56.232;43.854;2023-02-28T06:31:37;12.63;;;7.27;;
73452;SDS011;61687;56.232;43.854;2023-02-28T06:34:04;12.95;;;6.60;;
73452;SDS011;61687;56.232;43.854;2023-02-28T06:36:30;13.45;;;7.38;;
73452;SDS011;61687;56.232;43.854;2023-02-28T06:38:56;11.30;;;6.78;;
73452;SDS011;61687;56.232;43.854;2023-02-28T06:41:23;11.83;;;7.00;;
73452;SDS011;61687;56.232;43.854;2023-02-28T06:43:51;13.63;;;8.93;;
73452;SDS011;61687;56.232;43.854;2023-02-28T06:46:17;11.85;;;6.82;;
73452;SDS011;61687;56.232;43.854;2023-02-28T06:48:44;12.07;;;6.95;;
73452;SDS011;61687;56.232;43.854;2023-02-28T06:51:12;14.75;;;7.63;;
73452;SDS011;61687;56.232;43.854;2023-02-28T06:53:41;13.23;;;8.33;;
73452;SDS011;61687;56.232;43.854;2023-02-28T06:56:08;10.75;;;6.93;;
73452;SDS011;61687;56.232;43.854;2023-02-28T06:58:38;11.85;;;7.30;;
73452;SDS011;61687;56.232;43.854;2023-02-28T07:01:05;12.52;;;6.57;;
73452;SDS011;61687;56.232;43.854;2023-02-28T07:03:32;12.82;;;6.38;;
73452;SDS011;61687;56.232;43.854;2023-02-28T07:05:59;11.73;;;6.67;;
73452;SDS011;61687;56.232;43.854;2023-02-28T07:08:25;11.68;;;6.45;;
73452;SDS011;61687;56.232;43.854;2023-02-28T07:10:55;13.32;;;7.05;;
73452;SDS011;61687;56.232;43.854;2023-02-28T07:13:22;9.00;;;5.68;;
73452;SDS011;61687;56.232;43.854;2023-02-28T07:18:22;13.63;;;6.60;;
73452;SDS011;61687;56.232;43.854;2023-02-28T07:20:48;10.25;;;5.97;;
73452;SDS011;61687;56.232;43.854;2023-02-28T07:23:14;10.90;;;5.93;;
73452;SDS011;61687;56.232;43.854;2023-02-28T07:25:39;11.47;;;7.00;;
73452;SDS011;61687;56.232;43.854;2023-02-28T07:28:05;14.38;;;7.68;;
73452;SDS011;61687;56.232;43.854;2023-02-28T07:30:31;11.48;;;6.63;;
73452;SDS011;61687;56.232;43.854;2023-02-28T07:32:57;11.40;;;5.60;;
73452;SDS011;61687;56.232;43.854;2023-02-28T07:35:23;12.95;;;6.72;;
73452;SDS011;61687;56.232;43.854;2023-02-28T07:37:49;11.82;;;6.18;;
73452;SDS011;61687;56.232;43.854;2023-02-28T07:40:15;10.30;;;5.70;;
73452;SDS011;61687;56.232;43.854;2023-02-28T07:42:43;9.65;;;5.50;;
73452;SDS011;61687;56.232;43.854;2023-02-28T07:45:10;11.77;;;6.25;;
73452;SDS011;61687;56.232;43.854;2023-02-28T07:47:40;10.60;;;6.03;;
73452;SDS011;61687;56.232;43.854;2023-02-28T07:50:09;9.90;;;6.07;;
73452;SDS011;61687;56.232;43.854;2023-02-28T07:52:38;9.85;;;5.22;;
73452;SDS011;61687;56.232;43.854;2023-02-28T07:55:05;12.43;;;5.95;;
73452;SDS011;61687;56.232;43.854;2023-02-28T07:57:32;9.85;;;5.68;;
73452;SDS011;61687;56.232;43.854;2023-02-28T07:59:58;12.02;;;7.05;;
73452;SDS011;61687;56.232;43.854;2023-02-28T08:02:24;8.70;;;4.78;;
73452;SDS011;61687;56.232;43.854;2023-02-28T08:04:50;11.73;;;5.88;;
73452;SDS011;61687;56.232;43.854;2023-02-28T08:07:17;10.23;;;5.68;;
73452;SDS011;61687;56.232;43.854;2023-02-28T08:09:43;11.07;;;6.72;;
73452;SDS011;61687;56.232;43.854;2023-02-28T08:12:10;11.40;;;6.13;;
73452;SDS011;61687;56.232;43.854;2023-02-28T08:14:37;11.95;;;6.28;;
73452;SDS011;61687;56.232;43.854;2023-02-28T08:17:04;11.82;;;5.82;;
73452;SDS011;61687;56.232;43.854;2023-02-28T08:19:30;11.30;;;5.28;;
73452;SDS011;61687;56.232;43.854;2023-02-28T08:21:57;11.43;;;6.03;;
73452;SDS011;61687;56.232;43.854;2023-02-28T08:24:23;9.75;;;5.28;;
73452;SDS011;61687;56.232;43.854;2023-02-28T08:26:49;8.10;;;5.45;;
73452;SDS011;61687;56.232;43.854;2023-02-28T08:29:15;13.10;;;6.18;;
73452;SDS011;61687;56.232;43.854;2023-02-28T08:31:41;12.98;;;6.32;;
73452;SDS011;61687;56.232;43.854;2023-02-28T08:34:08;9.67;;;4.90;;
73452;SDS011;61687;56.232;43.854;2023-02-28T08:36:36;8.98;;;5.32;;
73452;SDS011;61687;56.232;43.854;2023-02-28T08:39:03;9.75;;;6.00;;
73452;SDS011;61687;56.232;43.854;2023-02-28T08:41:29;9.10;;;5.22;;
73452;SDS011;61687;56.232;43.854;2023-02-28T08:43:55;9.88;;;5.57;;
73452;SDS011;61687;56.232;43.854;2023-02-28T08:46:22;8.17;;;5.17;;
73452;SDS011;61687;56.232;43.854;2023-02-28T08:48:51;9.18;;;4.30;;
73452;SDS011;61687;56.232;43.854;2023-02-28T08:51:19;9.52;;;6.15;;
73452;SDS011;61687;56.232;43.854;2023-02-28T08:53:52;13.18;;;5.22;;
73452;SDS011;61687;56.232;43.854;2023-02-28T08:56:18;10.23;;;5.45;;
73452;SDS011;61687;56.232;43.854;2023-02-28T08:58:46;16.33;;;6.63;;
73452;SDS011;61687;56.232;43.854;2023-02-28T09:01:14;10.02;;;6.25;;
73452;SDS011;61687;56.232;43.854;2023-02-28T09:03:42;10.75;;;5.68;;
73452;SDS011;61687;56.232;43.854;2023-02-28T09:06:08;11.75;;;6.15;;
73452;SDS011;61687;56.232;43.854;2023-02-28T09:08:35;13.25;;;6.15;;
73452;SDS011;61687;56.232;43.854;2023-02-28T09:11:01;10.20;;;4.97;;
73452;SDS011;61687;56.232;43.854;2023-02-28T09:13:28;10.05;;;5.45;;
73452;SDS011;61687;56.232;43.854;2023-02-28T09:15:57;12.13;;;5.93;;
73452;SDS011;61687;56.232;43.854;2023-02-28T09:18:24;11.07;;;5.75;;
73452;SDS011;61687;56.232;43.854;2023-02-28T09:20:51;11.80;;;5.68;;
73452;SDS011;61687;56.232;43.854;2023-02-28T09:23:18;15.33;;;5.97;;
73452;SDS011;61687;56.232;43.854;2023-02-28T09:25:45;11.77;;;5.85;;
73452;SDS011;61687;56.232;43.854;2023-02-28T09:28:18;10.98;;;5.55;;
73452;SDS011;61687;56.232;43.854;2023-02-28T09:30:46;11.23;;;5.40;;
73452;SDS011;61687;56.232;43.854;2023-02-28T09:33:13;12.63;;;7.05;;
73452;SDS011;61687;56.232;43.854;2023-02-28T09:35:40;12.53;;;6.40;;
73452;SDS011;61687;56.232;43.854;2023-02-28T09:38:06;13.00;;;5.97;;
73452;SDS011;61687;56.232;43.854;2023-02-28T09:40:35;10.15;;;5.57;;
73452;SDS011;61687;56.232;43.854;2023-02-28T09:43:22;12.32;;;5.82;;
73452;SDS011;61687;56.232;43.854;2023-02-28T09:46:02;10.95;;;5.72;;
73452;SDS011;61687;56.232;43.854;2023-02-28T09:48:35;10.87;;;5.63;;
73452;SDS011;61687;56.232;43.854;2023-02-28T09:51:09;8.95;;;5.80;;
73452;SDS011;61687;56.232;43.854;2023-02-28T09:53:39;11.88;;;6.18;;
73452;SDS011;61687;56.232;43.854;2023-02-28T09:56:13;10.88;;;5.30;;
73452;SDS011;61687;56.232;43.854;2023-02-28T09:59:01;10.32;;;5.30;;
73452;SDS011;61687;56.232;43.854;2023-02-28T10:04:18;11.15;;;5.63;;
73452;SDS011;61687;56.232;43.854;2023-02-28T10:07:47;13.57;;;6.30;;
73452;SDS011;61687;56.232;43.854;2023-02-28T10:10:14;12.50;;;5.28;;
73452;SDS011;61687;56.232;43.854;2023-02-28T10:12:46;10.30;;;6.10;;
73452;SDS011;61687;56.232;43.854;2023-02-28T10:15:15;9.97;;;5.70;;
73452;SDS011;61687;56.232;43.854;2023-02-28T10:17:43;11.57;;;5.95;;
73452;SDS011;61687;56.232;43.854;2023-02-28T10:20:14;12.73;;;6.68;;
73452;SDS011;61687;56.232;43.854;2023-02-28T10:23:08;11.98;;;5.80;;
73452;SDS011;61687;56.232;43.854;2023-02-28T10:25:35;12.48;;;5.57;;
73452;SDS011;61687;56.232;43.854;2023-02-28T10:28:09;9.87;;;5.03;;
73452;SDS011;61687;56.232;43.854;2023-02-28T10:30:40;9.27;;;4.57;;
73452;SDS011;61687;56.232;43.854;2023-02-28T10:33:15;10.32;;;5.60;;
73452;SDS011;61687;56.232;43.854;2023-02-28T10:36:03;8.88;;;4.97;;
73452;SDS011;61687;56.232;43.854;2023-02-28T10:38:32;10.32;;;5.18;;
73452;SDS011;61687;56.232;43.854;2023-02-28T10:41:16;10.63;;;5.53;;
73452;SDS011;61687;56.232;43.854;2023-02-28T10:43:56;10.38;;;5.70;;
73452;SDS011;61687;56.232;43.854;2023-02-28T10:46:48;11.77;;;5.80;;
73452;SDS011;61687;56.232;43.854;2023-02-28T10:49:20;15.35;;;6.30;;
73452;SDS011;61687;56.232;43.854;2023-02-28T10:51:49;12.88;;;6.15;;
73452;SDS011;61687;56.232;43.854;2023-02-28T10:54:21;9.23;;;5.60;;
73452;SDS011;61687;56.232;43.854;2023-02-28T10:59:43;8.60;;;5.78;;
73452;SDS011;61687;56.232;43.854;2023-02-28T11:02:43;10.00;;;5.80;;
73452;SDS011;61687;56.232;43.854;2023-02-28T11:05:24;13.68;;;5.72;;
73452;SDS011;61687;56.232;43.854;2023-02-28T11:08:10;12.03;;;5.70;;
73452;SDS011;61687;56.232;43.854;2023-02-28T11:10:39;11.45;;;4.72;;
73452;SDS011;61687;56.232;43.854;2023-02-28T11:13:15;12.02;;;6.30;;
73452;SDS011;61687;56.232;43.854;2023-02-28T11:15:49;8.35;;;4.88;;
73452;SDS011;61687;56.232;43.854;2023-02-28T11:18:28;10.10;;;4.90;;
73452;SDS011;61687;56.232;43.854;2023-02-28T11:21:01;14.23;;;5.73;;
73452;SDS011;61687;56.232;43.854;2023-02-28T11:23:28;12.15;;;5.65;;
73452;SDS011;61687;56.232;43.854;2023-02-28T11:25:59;13.00;;;6.10;;
73452;SDS011;61687;56.232;43.854;2023-02-28T11:28:35;11.18;;;5.30;;
73452;SDS011;61687;56.232;43.854;2023-02-28T11:31:04;11.98;;;5.43;;
73452;SDS011;61687;56.232;43.854;2023-02-28T11:36:31;12.80;;;5.53;;
73452;SDS011;61687;56.232;43.854;2023-02-28T11:39:00;11.18;;;5.78;;
73452;SDS011;61687;56.232;43.854;2023-02-28T11:41:37;11.65;;;5.85;;
73452;SDS011;61687;56.232;43.854;2023-02-28T11:59:50;8.75;;;4.63;;
73452;SDS011;61687;56.232;43.854;2023-02-28T12:03:02;11.02;;;5.53;;
73452;SDS011;61687;56.232;43.854;2023-02-28T12:05:39;8.23;;;5.17;;
73452;SDS011;61687;56.232;43.854;2023-02-28T12:11:04;8.30;;;4.40;;
73452;SDS011;61687;56.232;43.854;2023-02-28T12:19:06;11.93;;;5.88;;
73452;SDS011;61687;56.232;43.854;2023-02-28T12:26:51;11.32;;;4.95;;
73452;SDS011;61687;56.232;43.854;2023-02-28T12:32:01;8.70;;;4.45;;
73452;SDS011;61687;56.232;43.854;2023-02-28T12:34:33;10.18;;;4.47;;
73452;SDS011;61687;56.232;43.854;2023-02-28T12:37:07;9.73;;;4.50;;
73452;SDS011;61687;56.232;43.854;2023-02-28T12:39:46;9.07;;;5.57;;
73452;SDS011;61687;56.232;43.854;2023-02-28T12:42:29;10.40;;;5.25;;
73452;SDS011;61687;56.232;43.854;2023-02-28T12:44:59;11.07;;;5.60;;
73452;SDS011;61687;56.232;43.854;2023-02-28T12:47:30;9.63;;;4.68;;
73452;SDS011;61687;56.232;43.854;2023-02-28T12:49:58;15.52;;;5.57;;
73452;SDS011;61687;56.232;43.854;2023-02-28T12:52:44;7.07;;;4.00;;
73452;SDS011;61687;56.232;43.854;2023-02-28T13:09:20;7.73;;;4.67;;
73452;SDS011;61687;56.232;43.854;2023-02-28T13:11:50;6.88;;;4.18;;
73452;SDS011;61687;56.232;43.854;2023-02-28T13:17:03;8.85;;;4.82;;
73452;SDS011;61687;56.232;43.854;2023-02-28T13:19:41;10.77;;;5.15;;
73452;SDS011;61687;56.232;43.854;2023-02-28T13:25:50;7.32;;;5.03;;
73452;SDS011;61687;56.232;43.854;2023-02-28T13:27:54;9.95;;;4.47;;
73452;SDS011;61687;56.232;43.854;2023-02-28T13:33:26;10.75;;;4.90;;
73452;SDS011;61687;56.232;43.854;2023-02-28T13:36:09;9.87;;;5.10;;
73452;SDS011;61687;56.232;43.854;2023-02-28T13:38:39;9.15;;;4.70;;
73452;SDS011;61687;56.232;43.854;2023-02-28T13:44:15;8.93;;;4.30;;
73452;SDS011;61687;56.232;43.854;2023-02-28T13:49:18;9.33;;;5.77;;
73452;SDS011;61687;56.232;43.854;2023-02-28T13:52:12;8.95;;;4.22;;
73452;SDS011;61687;56.232;43.854;2023-02-28T14:05:42;12.52;;;5.80;;
73452;SDS011;61687;56.232;43.854;2023-02-28T14:08:14;10.68;;;5.82;;
73452;SDS011;61687;56.232;43.854;2023-02-28T14:10:45;11.77;;;5.80;;
73452;SDS011;61687;56.232;43.854;2023-02-28T14:20:52;8.90;;;4.15;;
73452;SDS011;61687;56.232;43.854;2023-02-28T14:31:37;10.70;;;5.30;;
73452;SDS011;61687;56.232;43.854;2023-02-28T14:36:40;10.55;;;5.93;;
73452;SDS011;61687;56.232;43.854;2023-02-28T14:39:26;11.57;;;5.90;;
73452;SDS011;61687;56.232;43.854;2023-02-28T14:41:57;9.27;;;5.55;;
73452;SDS011;61687;56.232;43.854;2023-02-28T14:44:30;10.18;;;6.70;;
73452;SDS011;61687;56.232;43.854;2023-02-28T14:47:00;11.75;;;5.88;;
73452;SDS011;61687;56.232;43.854;2023-02-28T14:49:33;11.02;;;6.40;;
73452;SDS011;61687;56.232;43.854;2023-02-28T14:52:20;12.32;;;5.85;;
73452;SDS011;61687;56.232;43.854;2023-02-28T14:54:55;13.63;;;5.97;;
73452;SDS011;61687;56.232;43.854;2023-02-28T14:57:30;11.80;;;5.38;;
73452;SDS011;61687;56.232;43.854;2023-02-28T15:02:38;9.15;;;5.20;;
73452;SDS011;61687;56.232;43.854;2023-02-28T15:07:43;14.25;;;5.90;;
73452;SDS011;61687;56.232;43.854;2023-02-28T15:12:54;14.73;;;6.00;;
73452;SDS011;61687;56.232;43.854;2023-02-28T15:15:32;12.63;;;5.75;;
73452;SDS011;61687;56.232;43.854;2023-02-28T15:18:10;13.05;;;7.53;;
73452;SDS011;61687;56.232;43.854;2023-02-28T15:20:47;14.85;;;7.05;;
73452;SDS011;61687;56.232;43.854;2023-02-28T15:23:14;9.98;;;5.25;;
73452;SDS011;61687;56.232;43.854;2023-02-28T15:25:41;12.48;;;5.78;;
73452;SDS011;61687;56.232;43.854;2023-02-28T15:28:14;13.88;;;6.55;;
73452;SDS011;61687;56.232;43.854;2023-02-28T15:30:53;11.77;;;6.57;;
73452;SDS011;61687;56.232;43.854;2023-02-28T15:33:32;12.73;;;6.15;;
73452;SDS011;61687;56.232;43.854;2023-02-28T15:36:06;12.05;;;5.05;;
73452;SDS011;61687;56.232;43.854;2023-02-28T15:38:55;13.63;;;6.75;;
73452;SDS011;61687;56.232;43.854;2023-02-28T15:41:28;11.55;;;5.47;;
73452;SDS011;61687;56.232;43.854;2023-02-28T15:47:11;9.00;;;4.95;;
73452;SDS011;61687;56.232;43.854;2023-02-28T15:49:53;10.77;;;6.10;;
73452;SDS011;61687;56.232;43.854;2023-02-28T15:52:43;10.57;;;5.40;;
73452;SDS011;61687;56.232;43.854;2023-02-28T15:55:12;16.63;;;7.15;;
73452;SDS011;61687;56.232;43.854;2023-02-28T15:57:44;12.67;;;6.97;;
73452;SDS011;61687;56.232;43.854;2023-02-28T16:00:15;11.73;;;5.43;;
73452;SDS011;61687;56.232;43.854;2023-02-28T16:02:44;13.07;;;6.13;;
73452;SDS011;61687;56.232;43.854;2023-02-28T16:07:38;14.43;;;6.55;;
73452;SDS011;61687;56.232;43.854;2023-02-28T16:10:06;13.83;;;7.27;;
73452;SDS011;61687;56.232;43.854;2023-02-28T16:12:35;10.93;;;5.57;;
73452;SDS011;61687;56.232;43.854;2023-02-28T16:15:07;13.13;;;6.43;;
73452;SDS011;61687;56.232;43.854;2023-02-28T16:17:46;14.00;;;7.38;;
73452;SDS011;61687;56.232;43.854;2023-02-28T16:20:33;12.07;;;5.45;;
73452;SDS011;61687;56.232;43.854;2023-02-28T16:22:59;10.73;;;5.97;;
73452;SDS011;61687;56.232;43.854;2023-02-28T16:25:34;13.32;;;7.22;;
73452;SDS011;61687;56.232;43.854;2023-02-28T16:28:12;12.85;;;5.93;;
73452;SDS011;61687;56.232;43.854;2023-02-28T16:30:45;15.93;;;6.05;;
73452;SDS011;61687;56.232;43.854;2023-02-28T16:33:12;9.77;;;5.65;;
73452;SDS011;61687;56.232;43.854;2023-02-28T16:35:38;13.07;;;6.93;;
73452;SDS011;61687;56.232;43.854;2023-02-28T16:38:04;11.30;;;5.85;;
73452;SDS011;61687;56.232;43.854;2023-02-28T16:40:33;13.23;;;7.07;;
73452;SDS011;61687;56.232;43.854;2023-02-28T16:43:03;9.93;;;5.70;;
73452;SDS011;61687;56.232;43.854;2023-02-28T16:45:32;15.07;;;6.88;;
73452;SDS011;61687;56.232;43.854;2023-02-28T16:47:59;13.57;;;5.47;;
73452;SDS011;61687;56.232;43.854;2023-02-28T16:50:26;12.43;;;6.25;;
73452;SDS011;61687;56.232;43.854;2023-02-28T16:52:54;12.00;;;6.50;;
73452;SDS011;61687;56.232;43.854;2023-02-28T16:55:22;16.13;;;6.97;;
73452;SDS011;61687;56.232;43.854;2023-02-28T16:57:50;13.73;;;6.43;;
73452;SDS011;61687;56.232;43.854;2023-02-28T17:00:19;12.60;;;7.17;;
73452;SDS011;61687;56.232;43.854;2023-02-28T17:02:46;16.38;;;7.97;;
73452;SDS011;61687;56.232;43.854;2023-02-28T17:05:13;14.27;;;6.97;;
73452;SDS011;61687;56.232;43.854;2023-02-28T17:07:41;16.17;;;7.80;;
73452;SDS011;61687;56.232;43.854;2023-02-28T17:12:42;12.70;;;6.85;;
73452;SDS011;61687;56.232;43.854;2023-02-28T17:15:10;14.48;;;7.97;;
73452;SDS011;61687;56.232;43.854;2023-02-28T17:17:37;17.17;;;7.72;;
73452;SDS011;61687;56.232;43.854;2023-02-28T17:20:04;16.25;;;8.70;;
73452;SDS011;61687;56.232;43.854;2023-02-28T17:22:32;14.13;;;7.03;;